createdAt,value
2017-09-16T00:00:07.734Z,8.8
2017-09-16T00:01:09.343Z,9.0
2017-09-16T00:02:10.953Z,8.8
2017-09-16T00:03:12.561Z,9.0
2017-09-16T00:04:14.166Z,8.9
2017-09-16T00:05:15.776Z,8.8
2017-09-16T00:06:17.382Z,9.0
2017-09-16T00:07:18.990Z,8.8
2017-09-16T00:08:20.599Z,8.8
2017-09-16T00:09:22.210Z,8.8
2017-09-16T00:10:23.816Z,8.8
2017-09-16T00:11:25.425Z,8.8
2017-09-16T00:12:27.039Z,8.8
2017-09-16T00:13:28.639Z,8.8
2017-09-16T00:14:30.246Z,8.8
2017-09-16T00:15:31.855Z,8.8
2017-09-16T00:16:33.463Z,8.8
2017-09-16T00:17:35.074Z,8.8
2017-09-16T00:18:36.675Z,8.8
2017-09-16T00:19:38.287Z,8.8
2017-09-16T00:20:39.892Z,8.9
2017-09-16T00:21:41.506Z,8.9
2017-09-16T00:22:43.114Z,8.9
2017-09-16T00:23:44.721Z,8.9
2017-09-16T00:24:46.326Z,8.8
2017-09-16T00:25:47.934Z,8.9
2017-09-16T00:26:49.539Z,8.9
2017-09-16T00:27:51.148Z,8.9
2017-09-16T00:28:52.754Z,8.8
2017-09-16T00:29:54.366Z,9.0
2017-09-16T00:30:55.973Z,8.8
2017-09-16T00:31:57.582Z,8.9
2017-09-16T00:32:59.187Z,8.8
2017-09-16T00:34:00.794Z,8.8
2017-09-16T00:35:02.405Z,8.8
2017-09-16T00:36:04.012Z,8.9
2017-09-16T00:37:05.622Z,8.8
2017-09-16T00:38:07.231Z,8.8
2017-09-16T00:39:08.835Z,8.8
2017-09-16T00:40:10.441Z,8.8
2017-09-16T00:41:12.049Z,8.8
2017-09-16T00:42:13.657Z,8.7
2017-09-16T00:43:15.268Z,8.7
2017-09-16T00:44:16.876Z,8.8
2017-09-16T00:45:18.486Z,8.7
2017-09-16T00:46:20.093Z,8.7
2017-09-16T00:47:21.699Z,8.7
2017-09-16T00:48:23.305Z,8.6
2017-09-16T00:49:24.919Z,8.7
2017-09-16T00:50:26.531Z,8.7
2017-09-16T00:51:28.131Z,8.7
2017-09-16T00:52:29.742Z,8.6
2017-09-16T00:53:31.347Z,8.7
2017-09-16T00:54:32.953Z,8.6
2017-09-16T00:55:34.560Z,8.7
2017-09-16T00:56:36.170Z,8.6
2017-09-16T00:57:37.778Z,8.6
2017-09-16T00:58:39.386Z,8.7
2017-09-16T00:59:40.994Z,8.7
2017-09-16T01:00:42.601Z,8.7
2017-09-16T01:01:44.206Z,8.7
2017-09-16T01:02:45.812Z,8.6
2017-09-16T01:03:47.421Z,8.6
2017-09-16T01:04:49.029Z,8.5
2017-09-16T01:05:50.636Z,8.5
2017-09-16T01:06:52.247Z,8.5
2017-09-16T01:07:53.850Z,8.5
2017-09-16T01:08:55.459Z,8.5
2017-09-16T01:09:57.066Z,8.5
2017-09-16T01:10:58.665Z,8.6
2017-09-16T01:12:00.273Z,8.6
2017-09-16T01:13:01.878Z,8.6
2017-09-16T01:14:03.498Z,8.5
2017-09-16T01:15:05.102Z,8.5
2017-09-16T01:16:06.706Z,8.5
2017-09-16T01:17:08.313Z,8.5
2017-09-16T01:18:09.919Z,8.6
2017-09-16T01:19:11.525Z,8.5
2017-09-16T01:20:13.133Z,8.5
2017-09-16T01:21:14.741Z,8.3
2017-09-16T01:22:16.350Z,8.3
2017-09-16T01:23:17.948Z,8.5
2017-09-16T01:24:19.557Z,8.3
2017-09-16T01:25:21.164Z,8.5
2017-09-16T01:26:22.771Z,8.4
2017-09-16T01:27:24.376Z,8.4
2017-09-16T01:28:25.984Z,8.3
2017-09-16T01:29:27.589Z,8.5
2017-09-16T01:30:29.192Z,8.5
2017-09-16T01:31:30.797Z,8.4
2017-09-16T01:32:32.402Z,8.4
2017-09-16T01:33:34.018Z,8.4
2017-09-16T01:34:35.629Z,8.4
2017-09-16T01:35:37.244Z,8.4
2017-09-16T01:36:38.859Z,8.4
2017-09-16T01:37:40.471Z,8.4
2017-09-16T01:38:42.082Z,8.4
2017-09-16T01:39:43.699Z,8.4
2017-09-16T01:40:45.310Z,8.4
2017-09-16T01:41:46.922Z,8.4
2017-09-16T01:42:48.541Z,8.5
2017-09-16T01:43:50.153Z,8.5
2017-09-16T01:44:51.765Z,8.4
2017-09-16T01:45:53.377Z,8.4
2017-09-16T01:46:54.989Z,8.3
2017-09-16T01:47:56.606Z,8.3
2017-09-16T01:48:58.221Z,8.4
2017-09-16T01:49:59.835Z,8.2
2017-09-16T01:51:01.450Z,8.3
2017-09-16T01:52:03.060Z,8.3
2017-09-16T01:53:04.674Z,8.4
2017-09-16T01:54:06.287Z,8.3
2017-09-16T01:55:07.899Z,8.4
2017-09-16T01:56:09.514Z,8.4
2017-09-16T01:57:11.129Z,8.3
2017-09-16T01:58:12.740Z,8.4
2017-09-16T01:59:14.356Z,8.4
2017-09-16T02:00:15.965Z,8.3
2017-09-16T02:01:17.579Z,8.3
2017-09-16T02:02:19.195Z,8.2
2017-09-16T02:03:20.808Z,8.2
2017-09-16T02:04:22.421Z,8.3
2017-09-16T02:05:24.034Z,8.3
2017-09-16T02:06:25.648Z,8.3
2017-09-16T02:07:27.257Z,8.2
2017-09-16T02:08:28.873Z,8.2
2017-09-16T02:09:30.486Z,8.2
2017-09-16T02:10:32.101Z,8.2
2017-09-16T02:11:33.715Z,8.1
2017-09-16T02:12:35.326Z,8.1
2017-09-16T02:13:36.937Z,8.1
2017-09-16T02:14:38.551Z,8.0
2017-09-16T02:15:40.164Z,8.1
2017-09-16T02:16:41.778Z,8.1
2017-09-16T02:17:43.390Z,8.1
2017-09-16T02:18:45.009Z,8.1
2017-09-16T02:19:46.618Z,8.0
2017-09-16T02:20:48.230Z,8.0
2017-09-16T02:21:49.844Z,8.0
2017-09-16T02:22:51.459Z,8.0
2017-09-16T02:23:53.074Z,8.0
2017-09-16T02:24:54.687Z,8.0
2017-09-16T02:25:56.301Z,8.0
2017-09-16T02:26:57.913Z,8.1
2017-09-16T02:27:59.525Z,8.1
2017-09-16T02:29:01.138Z,8.1
2017-09-16T02:30:02.756Z,8.1
2017-09-16T02:31:04.365Z,8.1
2017-09-16T02:32:05.979Z,8.1
2017-09-16T02:33:07.589Z,8.0
2017-09-16T02:34:09.206Z,8.1
2017-09-16T02:35:10.817Z,8.1
2017-09-16T02:36:12.428Z,8.2
2017-09-16T02:37:14.041Z,8.2
2017-09-16T02:38:15.655Z,8.2
2017-09-16T02:39:17.269Z,8.3
2017-09-16T02:40:18.883Z,8.3
2017-09-16T02:41:20.494Z,8.2
2017-09-16T02:42:22.106Z,8.2
2017-09-16T02:43:23.724Z,8.2
2017-09-16T02:44:25.334Z,8.2
2017-09-16T02:45:26.950Z,8.2
2017-09-16T02:46:28.567Z,8.2
2017-09-16T02:47:30.180Z,8.1
2017-09-16T02:48:31.791Z,8.2
2017-09-16T02:49:33.405Z,8.3
2017-09-16T02:50:35.018Z,8.3
2017-09-16T02:51:36.629Z,8.2
2017-09-16T02:52:38.244Z,8.3
2017-09-16T02:53:39.857Z,8.2
2017-09-16T02:54:41.474Z,8.3
2017-09-16T02:55:43.082Z,8.3
2017-09-16T02:56:44.693Z,8.3
2017-09-16T02:57:46.307Z,8.1
2017-09-16T02:58:47.919Z,8.2
2017-09-16T02:59:49.531Z,8.2
2017-09-16T03:00:51.145Z,8.2
2017-09-16T03:01:52.757Z,8.1
2017-09-16T03:02:54.371Z,8.0
2017-09-16T03:03:55.982Z,8.1
2017-09-16T03:04:57.596Z,8.0
2017-09-16T03:05:59.208Z,8.0
2017-09-16T03:07:00.823Z,8.0
2017-09-16T03:08:02.437Z,8.2
2017-09-16T03:09:04.052Z,8.2
2017-09-16T03:10:05.665Z,8.2
2017-09-16T03:11:07.278Z,8.2
2017-09-16T03:12:08.890Z,8.2
2017-09-16T03:13:10.504Z,8.1
2017-09-16T03:14:12.120Z,8.2
2017-09-16T03:15:13.732Z,8.1
2017-09-16T03:16:15.347Z,8.2
2017-09-16T03:17:16.963Z,8.2
2017-09-16T03:18:18.573Z,8.1
2017-09-16T03:19:20.185Z,8.1
2017-09-16T03:20:21.799Z,8.1
2017-09-16T03:21:23.416Z,8.2
2017-09-16T03:22:25.029Z,8.2
2017-09-16T03:23:26.651Z,8.1
2017-09-16T03:24:28.256Z,8.2
2017-09-16T03:25:29.870Z,8.3
2017-09-16T03:26:31.478Z,8.1
2017-09-16T03:27:33.093Z,8.1
2017-09-16T03:28:34.709Z,8.1
2017-09-16T03:29:36.321Z,8.2
2017-09-16T03:30:37.938Z,8.2
2017-09-16T03:31:39.548Z,8.2
2017-09-16T03:32:41.161Z,8.1
2017-09-16T03:33:42.775Z,8.3
2017-09-16T03:34:44.392Z,8.4
2017-09-16T03:35:46.004Z,8.5
2017-09-16T03:36:47.619Z,8.4
2017-09-16T03:37:49.232Z,8.4
2017-09-16T03:38:50.847Z,8.3
2017-09-16T03:39:52.458Z,8.4
2017-09-16T03:40:54.070Z,8.3
2017-09-16T03:41:55.684Z,8.3
2017-09-16T03:42:57.301Z,8.2
2017-09-16T03:43:58.916Z,8.2
2017-09-16T03:45:00.534Z,8.3
2017-09-16T03:46:02.148Z,8.3
2017-09-16T03:47:03.759Z,8.4
2017-09-16T03:48:05.372Z,8.3
2017-09-16T03:49:06.989Z,8.3
2017-09-16T03:50:08.606Z,8.3
2017-09-16T03:51:10.220Z,8.2
2017-09-16T03:52:11.841Z,8.2
2017-09-16T03:53:13.444Z,8.1
2017-09-16T03:54:15.058Z,8.2
2017-09-16T03:55:16.719Z,8.2
2017-09-16T03:56:18.326Z,8.2
2017-09-16T03:57:19.941Z,8.1
2017-09-16T03:58:22.610Z,8.1
2017-09-16T03:59:24.226Z,8.0
2017-09-16T04:00:25.839Z,8.0
2017-09-16T04:01:27.450Z,8.0
2017-09-16T04:02:29.064Z,8.1
2017-09-16T04:03:30.679Z,8.1
2017-09-16T04:04:32.291Z,8.0
2017-09-16T04:05:33.903Z,8.0
2017-09-16T04:06:35.519Z,8.0
2017-09-16T04:07:37.132Z,7.9
2017-09-16T04:08:38.746Z,8.0
2017-09-16T04:09:40.356Z,8.0
2017-09-16T04:10:41.971Z,8.0
2017-09-16T04:11:43.591Z,8.0
2017-09-16T04:12:45.205Z,8.1
2017-09-16T04:13:46.821Z,8.1
2017-09-16T04:14:48.433Z,8.0
2017-09-16T04:15:50.045Z,8.0
2017-09-16T04:16:51.659Z,8.0
2017-09-16T04:17:53.275Z,8.0
2017-09-16T04:18:54.890Z,8.0
2017-09-16T04:19:56.505Z,8.0
2017-09-16T04:20:58.123Z,8.0
2017-09-16T04:21:59.733Z,8.0
2017-09-16T04:23:01.346Z,8.0
2017-09-16T04:24:02.962Z,8.0
2017-09-16T04:25:04.581Z,8.2
2017-09-16T04:26:06.192Z,8.0
2017-09-16T04:27:07.805Z,8.1
2017-09-16T04:28:09.424Z,8.0
2017-09-16T04:29:11.034Z,8.0
2017-09-16T04:30:12.651Z,8.1
2017-09-16T04:31:14.261Z,8.1
2017-09-16T04:32:15.877Z,8.0
2017-09-16T04:33:17.495Z,8.1
2017-09-16T04:34:19.108Z,8.0
2017-09-16T04:35:20.725Z,8.0
2017-09-16T04:36:22.339Z,8.1
2017-09-16T04:37:23.952Z,8.0
2017-09-16T04:38:25.567Z,8.1
2017-09-16T04:39:27.178Z,8.0
2017-09-16T04:40:28.792Z,8.1
2017-09-16T04:41:30.404Z,8.0
2017-09-16T04:42:32.023Z,8.1
2017-09-16T04:43:33.635Z,8.1
2017-09-16T04:44:35.244Z,8.0
2017-09-16T04:45:36.858Z,8.1
2017-09-16T04:46:38.471Z,8.0
2017-09-16T04:47:40.086Z,8.0
2017-09-16T04:48:41.700Z,8.0
2017-09-16T04:49:43.317Z,8.0
2017-09-16T04:50:44.928Z,8.0
2017-09-16T04:51:46.542Z,8.0
2017-09-16T04:52:48.155Z,8.0
2017-09-16T04:53:49.772Z,8.1
2017-09-16T04:54:51.384Z,8.0
2017-09-16T04:55:52.998Z,7.9
2017-09-16T04:56:54.614Z,7.9
2017-09-16T04:57:56.227Z,8.0
2017-09-16T04:58:57.842Z,7.9
2017-09-16T04:59:59.464Z,7.9
2017-09-16T05:01:01.083Z,8.1
2017-09-16T05:02:02.701Z,8.0
2017-09-16T05:03:04.321Z,7.9
2017-09-16T05:04:05.938Z,8.1
2017-09-16T05:05:07.559Z,8.0
2017-09-16T05:06:09.173Z,8.0
2017-09-16T05:07:10.789Z,7.9
2017-09-16T05:08:12.403Z,7.9
2017-09-16T05:09:14.020Z,7.9
2017-09-16T05:10:15.638Z,8.0
2017-09-16T05:11:17.257Z,7.9
2017-09-16T05:12:18.873Z,8.0
2017-09-16T05:13:20.487Z,7.8
2017-09-16T05:14:22.103Z,7.8
2017-09-16T05:15:23.719Z,7.8
2017-09-16T05:16:25.339Z,7.9
2017-09-16T05:17:26.955Z,7.8
2017-09-16T05:18:28.574Z,7.8
2017-09-16T05:19:30.190Z,7.8
2017-09-16T05:20:31.802Z,7.7
2017-09-16T05:21:33.421Z,7.8
2017-09-16T05:22:35.044Z,7.8
2017-09-16T05:23:36.663Z,7.7
2017-09-16T05:24:38.280Z,7.8
2017-09-16T05:25:39.896Z,7.8
2017-09-16T05:26:41.508Z,7.8
2017-09-16T05:27:43.126Z,7.8
2017-09-16T05:28:44.740Z,7.8
2017-09-16T05:29:46.359Z,7.7
2017-09-16T05:30:47.977Z,7.8
2017-09-16T05:31:49.591Z,7.8
2017-09-16T05:32:51.209Z,7.8
2017-09-16T05:33:52.824Z,7.8
2017-09-16T05:34:54.441Z,7.9
2017-09-16T05:35:56.060Z,7.9
2017-09-16T05:36:57.677Z,7.9
2017-09-16T05:37:59.294Z,7.8
2017-09-16T05:39:00.913Z,7.8
2017-09-16T05:40:02.532Z,7.8
2017-09-16T05:41:04.148Z,7.8
2017-09-16T05:42:05.765Z,7.8
2017-09-16T05:43:07.383Z,7.7
2017-09-16T05:44:09.003Z,7.8
2017-09-16T05:45:10.621Z,7.8
2017-09-16T05:46:12.241Z,7.9
2017-09-16T05:47:13.865Z,7.9
2017-09-16T05:48:15.481Z,7.9
2017-09-16T05:49:17.099Z,7.9
2017-09-16T05:50:18.720Z,8.0
2017-09-16T05:51:20.340Z,8.0
2017-09-16T05:52:21.965Z,8.0
2017-09-16T05:53:23.588Z,8.0
2017-09-16T05:54:25.208Z,8.0
2017-09-16T05:55:26.826Z,8.1
2017-09-16T05:56:28.444Z,8.0
2017-09-16T05:57:30.062Z,8.0
2017-09-16T05:58:31.680Z,8.1
2017-09-16T05:59:33.300Z,8.2
2017-09-16T06:00:34.919Z,8.1
2017-09-16T06:01:36.542Z,8.2
2017-09-16T06:02:38.161Z,8.2
2017-09-16T06:03:39.779Z,8.2
2017-09-16T06:04:41.399Z,8.3
2017-09-16T06:05:43.018Z,8.3
2017-09-16T06:06:44.637Z,8.3
2017-09-16T06:07:46.257Z,8.4
2017-09-16T06:08:47.908Z,8.4
2017-09-16T06:09:49.544Z,8.4
2017-09-16T06:10:51.164Z,8.4
2017-09-16T06:11:52.780Z,8.6
2017-09-16T06:12:54.400Z,8.6
2017-09-16T06:13:56.020Z,8.6
2017-09-16T06:14:57.641Z,8.7
2017-09-16T06:15:59.264Z,8.7
2017-09-16T06:17:00.883Z,9.3
2017-09-16T06:18:02.510Z,10.2
2017-09-16T06:19:04.127Z,11.3
2017-09-16T06:20:05.748Z,11.9
2017-09-16T06:21:07.370Z,12.2
2017-09-16T06:22:08.995Z,12.5
2017-09-16T06:23:10.623Z,13.0
2017-09-16T06:24:12.239Z,13.9
2017-09-16T06:25:13.860Z,14.5
2017-09-16T06:26:15.483Z,15.0
2017-09-16T06:27:17.106Z,15.4
2017-09-16T06:28:18.734Z,15.7
2017-09-16T06:29:20.364Z,16.0
2017-09-16T06:30:21.995Z,16.5
2017-09-16T06:31:23.613Z,17.0
2017-09-16T06:32:25.234Z,17.4
2017-09-16T06:33:26.859Z,17.9
2017-09-16T06:34:28.482Z,17.9
2017-09-16T06:35:30.105Z,18.2
2017-09-16T06:36:31.731Z,18.6
2017-09-16T06:37:33.361Z,18.9
2017-09-16T06:38:34.982Z,18.9
2017-09-16T06:39:36.605Z,18.7
2017-09-16T06:40:38.232Z,19.1
2017-09-16T06:41:39.857Z,19.3
2017-09-16T06:42:41.487Z,19.4
2017-09-16T06:43:43.116Z,19.4
2017-09-16T06:44:44.745Z,19.4
2017-09-16T06:45:46.367Z,19.4
2017-09-16T06:46:47.997Z,19.3
2017-09-16T06:47:49.622Z,19.0
2017-09-16T06:48:51.253Z,18.4
2017-09-16T06:49:52.879Z,17.9
2017-09-16T06:50:54.507Z,17.9
2017-09-16T06:51:56.140Z,17.6
2017-09-16T06:52:57.764Z,17.4
2017-09-16T06:53:59.392Z,17.4
2017-09-16T06:55:01.023Z,17.5
2017-09-16T06:56:02.649Z,17.7
2017-09-16T06:57:04.279Z,17.6
2017-09-16T06:58:05.908Z,18.1
2017-09-16T06:59:07.538Z,18.7
2017-09-16T07:00:09.167Z,19.4
2017-09-16T07:01:10.795Z,20.0
2017-09-16T07:02:12.423Z,20.9
2017-09-16T07:03:14.051Z,21.5
2017-09-16T07:04:15.699Z,22.1
2017-09-16T07:05:17.316Z,22.8
2017-09-16T07:06:18.941Z,23.5
2017-09-16T07:07:20.571Z,24.2
2017-09-16T07:08:22.198Z,25.0
2017-09-16T07:09:23.824Z,25.9
2017-09-16T07:10:25.463Z,25.9
2017-09-16T07:11:27.094Z,25.6
2017-09-16T07:12:28.728Z,25.2
2017-09-16T07:13:30.361Z,25.6
2017-09-16T07:14:31.990Z,25.3
2017-09-16T07:15:33.617Z,25.4
2017-09-16T07:16:35.249Z,26.1
2017-09-16T07:17:36.880Z,26.3
2017-09-16T07:18:38.510Z,26.5
2017-09-16T07:19:40.141Z,26.4
2017-09-16T07:20:41.775Z,26.2
2017-09-16T07:21:43.406Z,26.3
2017-09-16T07:22:45.037Z,27.0
2017-09-16T07:23:46.666Z,26.7
2017-09-16T07:24:48.299Z,27.0
2017-09-16T07:25:49.929Z,26.9
2017-09-16T07:26:51.563Z,27.2
2017-09-16T07:27:53.195Z,27.4
2017-09-16T07:28:54.823Z,27.2
2017-09-16T07:29:56.457Z,27.6
2017-09-16T07:30:58.086Z,27.5
2017-09-16T07:31:59.719Z,27.8
2017-09-16T07:33:01.352Z,27.6
2017-09-16T07:34:02.987Z,27.3
2017-09-16T07:35:04.619Z,27.5
2017-09-16T07:36:06.248Z,26.8
2017-09-16T07:37:07.877Z,27.0
2017-09-16T07:38:09.509Z,27.4
2017-09-16T07:39:11.143Z,27.8
2017-09-16T07:40:12.783Z,27.8
2017-09-16T07:41:14.414Z,27.7
2017-09-16T07:42:16.047Z,27.6
2017-09-16T07:43:17.677Z,27.3
2017-09-16T07:44:19.311Z,27.4
2017-09-16T07:45:20.946Z,27.4
2017-09-16T07:46:22.579Z,27.4
2017-09-16T07:47:24.214Z,27.5
2017-09-16T07:48:25.851Z,27.1
2017-09-16T07:49:27.483Z,27.0
2017-09-16T07:50:29.118Z,27.2
2017-09-16T07:51:30.750Z,27.9
2017-09-16T07:52:32.383Z,28.0
2017-09-16T07:53:34.018Z,28.3
2017-09-16T07:54:35.655Z,28.6
2017-09-16T07:55:37.287Z,28.0
2017-09-16T07:56:38.923Z,28.0
2017-09-16T07:57:40.555Z,29.0
2017-09-16T07:58:42.190Z,29.7
2017-09-16T07:59:43.824Z,30.2
2017-09-16T08:00:45.459Z,30.1
2017-09-16T08:01:47.096Z,29.7
2017-09-16T08:02:48.733Z,30.0
2017-09-16T08:03:50.368Z,29.7
2017-09-16T08:04:51.999Z,30.0
2017-09-16T08:05:53.633Z,29.7
2017-09-16T08:06:55.267Z,30.0
2017-09-16T08:07:56.908Z,30.1
2017-09-16T08:08:58.548Z,30.2
2017-09-16T08:10:00.183Z,30.2
2017-09-16T08:11:01.816Z,30.5
2017-09-16T08:12:03.448Z,30.0
2017-09-16T08:13:05.079Z,30.5
2017-09-16T08:14:06.750Z,30.7
2017-09-16T08:15:08.386Z,30.8
2017-09-16T08:16:10.023Z,30.9
2017-09-16T08:17:11.662Z,30.1
2017-09-16T08:18:13.295Z,30.7
2017-09-16T08:19:14.929Z,31.2
2017-09-16T08:20:16.562Z,31.3
2017-09-16T08:21:18.197Z,31.8
2017-09-16T08:22:19.831Z,31.7
2017-09-16T08:23:21.469Z,31.5
2017-09-16T08:24:23.105Z,31.1
2017-09-16T08:25:24.746Z,31.1
2017-09-16T08:26:26.383Z,31.1
2017-09-16T08:27:28.019Z,31.6
2017-09-16T08:28:29.655Z,32.1
2017-09-16T08:29:31.289Z,32.1
2017-09-16T08:30:32.926Z,31.9
2017-09-16T08:31:34.565Z,32.0
2017-09-16T08:32:36.203Z,32.2
2017-09-16T08:33:37.838Z,32.2
2017-09-16T08:34:39.476Z,32.3
2017-09-16T08:35:41.140Z,32.9
2017-09-16T08:36:42.745Z,33.1
2017-09-16T08:37:44.383Z,33.6
2017-09-16T08:38:46.024Z,33.7
2017-09-16T08:39:47.662Z,33.0
2017-09-16T08:40:49.301Z,33.2
2017-09-16T08:41:50.938Z,33.6
2017-09-16T08:42:52.574Z,33.8
2017-09-16T08:43:54.214Z,32.2
2017-09-16T08:44:55.851Z,31.1
2017-09-16T08:45:57.488Z,31.2
2017-09-16T08:46:59.127Z,31.7
2017-09-16T08:48:00.765Z,31.5
2017-09-16T08:49:02.401Z,30.8
2017-09-16T08:50:04.037Z,30.8
2017-09-16T08:51:05.674Z,30.1
2017-09-16T08:52:07.312Z,29.4
2017-09-16T08:53:08.953Z,30.5
2017-09-16T08:54:10.594Z,30.8
2017-09-16T08:55:12.229Z,30.6
2017-09-16T08:56:13.865Z,30.9
2017-09-16T08:57:15.502Z,31.7
2017-09-16T08:58:17.138Z,31.0
2017-09-16T08:59:18.773Z,31.5
2017-09-16T09:00:20.412Z,32.2
2017-09-16T09:01:22.054Z,32.5
2017-09-16T09:02:23.701Z,30.8
2017-09-16T09:03:25.336Z,30.7
2017-09-16T09:04:26.971Z,31.0
2017-09-16T09:05:28.611Z,31.7
2017-09-16T09:06:30.248Z,31.9
2017-09-16T09:07:31.888Z,32.4
2017-09-16T09:08:33.524Z,32.2
2017-09-16T09:09:35.163Z,31.4
2017-09-16T09:10:36.800Z,31.3
2017-09-16T09:11:38.437Z,31.7
2017-09-16T09:12:40.074Z,32.4
2017-09-16T09:13:41.714Z,32.6
2017-09-16T09:14:43.350Z,31.0
2017-09-16T09:15:44.996Z,30.1
2017-09-16T09:16:46.636Z,30.5
2017-09-16T09:17:48.272Z,29.2
2017-09-16T09:18:49.909Z,29.5
2017-09-16T09:19:51.549Z,28.9
2017-09-16T09:20:53.190Z,29.3
2017-09-16T09:21:54.824Z,29.4
2017-09-16T09:22:56.466Z,29.4
2017-09-16T09:23:58.105Z,29.1
2017-09-16T09:24:59.739Z,28.6
2017-09-16T09:26:01.374Z,28.6
2017-09-16T09:27:03.011Z,28.5
2017-09-16T09:28:04.649Z,28.8
2017-09-16T09:29:06.286Z,27.4
2017-09-16T09:30:07.927Z,27.3
2017-09-16T09:31:09.561Z,28.1
2017-09-16T09:32:11.195Z,28.9
2017-09-16T09:33:12.839Z,29.3
2017-09-16T09:34:14.482Z,30.2
2017-09-16T09:35:16.112Z,30.7
2017-09-16T09:36:17.751Z,31.2
2017-09-16T09:37:19.390Z,31.6
2017-09-16T09:38:21.025Z,32.0
2017-09-16T09:39:22.662Z,32.4
2017-09-16T09:40:24.299Z,32.4
2017-09-16T09:41:25.937Z,31.3
2017-09-16T09:42:27.577Z,30.5
2017-09-16T09:43:29.218Z,30.4
2017-09-16T09:44:30.860Z,29.9
2017-09-16T09:45:32.495Z,28.2
2017-09-16T09:46:34.134Z,28.9
2017-09-16T09:47:35.777Z,28.4
2017-09-16T09:48:37.416Z,28.5
2017-09-16T09:49:39.053Z,28.6
2017-09-16T09:50:40.694Z,27.9
2017-09-16T09:51:42.335Z,27.5
2017-09-16T09:52:43.970Z,26.4
2017-09-16T09:53:45.606Z,27.1
2017-09-16T09:54:47.245Z,27.8
2017-09-16T09:55:48.880Z,27.8
2017-09-16T09:56:50.520Z,27.7
2017-09-16T09:57:52.157Z,27.5
2017-09-16T09:58:53.799Z,28.1
2017-09-16T09:59:55.431Z,28.7
2017-09-16T10:00:57.065Z,28.8
2017-09-16T10:01:58.705Z,28.5
2017-09-16T10:03:00.339Z,28.4
2017-09-16T10:04:01.979Z,28.9
2017-09-16T10:05:03.618Z,28.7
2017-09-16T10:06:05.258Z,28.6
2017-09-16T10:07:06.900Z,28.9
2017-09-16T10:08:08.539Z,29.3
2017-09-16T10:09:10.175Z,30.1
2017-09-16T10:10:11.810Z,30.4
2017-09-16T10:11:13.454Z,30.5
2017-09-16T10:12:15.092Z,30.7
2017-09-16T10:13:16.734Z,30.7
2017-09-16T10:14:19.286Z,30.0
2017-09-16T10:15:20.927Z,30.1
2017-09-16T10:16:22.567Z,30.4
2017-09-16T10:17:24.205Z,31.1
2017-09-16T10:18:25.845Z,30.6
2017-09-16T10:19:27.482Z,30.2
2017-09-16T10:20:29.123Z,29.1
2017-09-16T10:21:30.762Z,28.4
2017-09-16T10:22:32.399Z,27.4
2017-09-16T10:23:34.036Z,27.1
2017-09-16T10:24:35.677Z,27.2
2017-09-16T10:25:37.315Z,26.7
2017-09-16T10:26:38.954Z,26.4
2017-09-16T10:27:40.592Z,26.1
2017-09-16T10:28:42.226Z,25.6
2017-09-16T10:29:43.857Z,25.0
2017-09-16T10:30:45.493Z,24.3
2017-09-16T10:31:47.131Z,25.1
2017-09-16T10:32:48.809Z,24.6
2017-09-16T10:33:50.444Z,24.3
2017-09-16T10:34:52.081Z,24.2
2017-09-16T10:35:53.714Z,24.6
2017-09-16T10:36:55.347Z,25.1
2017-09-16T10:37:56.984Z,24.9
2017-09-16T10:38:58.613Z,24.2
2017-09-16T10:40:00.249Z,24.2
2017-09-16T10:41:01.884Z,23.7
2017-09-16T10:42:03.517Z,23.5
2017-09-16T10:43:05.147Z,23.4
2017-09-16T10:44:06.776Z,23.0
2017-09-16T10:45:08.406Z,22.7
2017-09-16T10:46:10.042Z,22.6
2017-09-16T10:47:11.680Z,22.4
2017-09-16T10:48:13.306Z,23.4
2017-09-16T10:49:14.942Z,24.2
2017-09-16T10:50:16.570Z,24.5
2017-09-16T10:51:18.202Z,24.9
2017-09-16T10:52:19.836Z,25.2
2017-09-16T10:53:21.467Z,25.8
2017-09-16T10:54:23.101Z,25.7
2017-09-16T10:55:24.737Z,25.6
2017-09-16T10:56:26.408Z,25.8
2017-09-16T10:57:28.046Z,25.8
2017-09-16T10:58:29.678Z,26.1
2017-09-16T10:59:31.310Z,26.7
2017-09-16T11:00:32.947Z,27.1
2017-09-16T11:01:34.583Z,26.8
2017-09-16T11:02:36.221Z,26.6
2017-09-16T11:03:37.858Z,26.6
2017-09-16T11:04:39.495Z,27.1
2017-09-16T11:05:41.127Z,27.4
2017-09-16T11:06:42.762Z,28.0
2017-09-16T11:07:44.398Z,28.4
2017-09-16T11:08:46.036Z,28.7
2017-09-16T11:09:47.673Z,29.3
2017-09-16T11:10:49.313Z,29.6
2017-09-16T11:11:50.946Z,30.2
2017-09-16T11:12:52.582Z,30.2
2017-09-16T11:13:54.218Z,30.4
2017-09-16T11:14:55.851Z,30.6
2017-09-16T11:15:57.493Z,30.8
2017-09-16T11:16:59.132Z,31.0
2017-09-16T11:18:00.769Z,30.8
2017-09-16T11:19:02.403Z,30.2
2017-09-16T11:20:04.042Z,30.6
2017-09-16T11:21:05.674Z,30.9
2017-09-16T11:22:07.312Z,30.7
2017-09-16T11:23:08.953Z,30.7
2017-09-16T11:24:10.591Z,31.0
2017-09-16T11:25:12.230Z,31.1
2017-09-16T11:26:13.867Z,30.8
2017-09-16T11:27:15.504Z,30.9
2017-09-16T11:28:17.142Z,31.1
2017-09-16T11:29:18.779Z,31.4
2017-09-16T11:30:20.419Z,31.7
2017-09-16T11:31:22.054Z,31.4
2017-09-16T11:32:23.694Z,31.7
2017-09-16T11:33:25.331Z,31.2
2017-09-16T11:34:26.966Z,31.7
2017-09-16T11:35:28.602Z,31.2
2017-09-16T11:36:30.240Z,30.5
2017-09-16T11:37:31.874Z,29.6
2017-09-16T11:38:33.512Z,28.6
2017-09-16T11:39:35.151Z,28.2
2017-09-16T11:40:36.786Z,28.2
2017-09-16T11:41:38.420Z,27.8
2017-09-16T11:42:40.057Z,27.2
2017-09-16T11:43:41.689Z,26.8
2017-09-16T11:44:43.327Z,27.3
2017-09-16T11:45:44.963Z,27.8
2017-09-16T11:46:46.599Z,28.1
2017-09-16T11:47:48.235Z,28.8
2017-09-16T11:48:49.870Z,29.2
2017-09-16T11:49:51.503Z,29.5
2017-09-16T11:50:53.138Z,29.2
2017-09-16T11:51:54.772Z,29.4
2017-09-16T11:52:56.409Z,29.3
2017-09-16T11:53:58.045Z,29.0
2017-09-16T11:54:59.678Z,29.4
2017-09-16T11:56:01.313Z,29.6
2017-09-16T11:57:02.950Z,30.0
2017-09-16T11:58:04.611Z,30.0
2017-09-16T11:59:06.218Z,29.9
2017-09-16T12:00:07.852Z,30.1
2017-09-16T12:01:09.491Z,30.4
2017-09-16T12:02:11.122Z,30.2
2017-09-16T12:03:12.757Z,29.3
2017-09-16T12:04:14.391Z,29.8
2017-09-16T12:05:16.027Z,29.0
2017-09-16T12:06:17.662Z,29.1
2017-09-16T12:07:19.295Z,29.1
2017-09-16T12:08:20.938Z,28.7
2017-09-16T12:09:22.571Z,29.0
2017-09-16T12:10:24.204Z,28.2
2017-09-16T12:11:25.837Z,27.5
2017-09-16T12:12:27.471Z,28.3
2017-09-16T12:13:29.106Z,28.8
2017-09-16T12:14:30.740Z,28.2
2017-09-16T12:15:32.375Z,27.6
2017-09-16T12:16:34.007Z,27.2
2017-09-16T12:17:35.639Z,27.5
2017-09-16T12:18:37.270Z,27.8
2017-09-16T12:19:38.902Z,28.0
2017-09-16T12:20:40.535Z,28.1
2017-09-16T12:21:42.167Z,28.1
2017-09-16T12:22:43.804Z,28.5
2017-09-16T12:23:45.433Z,28.6
2017-09-16T12:24:47.064Z,28.4
2017-09-16T12:25:48.694Z,28.2
2017-09-16T12:26:50.325Z,27.8
2017-09-16T12:27:51.960Z,27.8
2017-09-16T12:28:53.593Z,26.0
2017-09-16T12:29:55.224Z,25.3
2017-09-16T12:30:56.852Z,24.8
2017-09-16T12:31:58.478Z,24.5
2017-09-16T12:33:00.111Z,24.7
2017-09-16T12:34:01.743Z,24.4
2017-09-16T12:35:03.374Z,23.9
2017-09-16T12:36:05.002Z,23.9
2017-09-16T12:37:06.635Z,23.9
2017-09-16T12:38:08.262Z,23.8
2017-09-16T12:39:09.890Z,23.6
2017-09-16T12:40:11.518Z,23.5
2017-09-16T12:41:13.146Z,23.3
2017-09-16T12:42:14.778Z,23.7
2017-09-16T12:43:16.412Z,24.1
2017-09-16T12:44:18.047Z,24.7
2017-09-16T12:45:19.679Z,24.8
2017-09-16T12:46:21.303Z,24.4
2017-09-16T12:47:22.934Z,24.1
2017-09-16T12:48:24.562Z,25.0
2017-09-16T12:49:26.192Z,24.8
2017-09-16T12:50:27.824Z,24.1
2017-09-16T12:51:29.453Z,23.8
2017-09-16T12:52:31.079Z,23.8
2017-09-16T12:53:32.712Z,24.5
2017-09-16T12:54:34.340Z,25.0
2017-09-16T12:55:35.972Z,25.3
2017-09-16T12:56:37.602Z,25.5
2017-09-16T12:57:39.238Z,25.4
2017-09-16T12:58:40.866Z,25.3
2017-09-16T12:59:42.494Z,25.1
2017-09-16T13:00:44.121Z,25.3
2017-09-16T13:01:45.748Z,25.5
2017-09-16T13:02:47.377Z,25.6
2017-09-16T13:03:49.006Z,25.6
2017-09-16T13:04:50.638Z,25.6
2017-09-16T13:05:52.265Z,25.3
2017-09-16T13:06:53.896Z,25.8
2017-09-16T13:07:55.525Z,25.8
2017-09-16T13:08:57.150Z,25.7
2017-09-16T13:09:58.778Z,25.6
2017-09-16T13:11:00.409Z,25.6
2017-09-16T13:12:02.038Z,25.5
2017-09-16T13:13:03.668Z,24.8
2017-09-16T13:14:05.296Z,24.6
2017-09-16T13:15:06.923Z,24.2
2017-09-16T13:16:08.551Z,24.1
2017-09-16T13:17:10.181Z,23.8
2017-09-16T13:18:11.807Z,23.5
2017-09-16T13:19:13.438Z,23.5
2017-09-16T13:20:15.069Z,23.3
2017-09-16T13:21:16.697Z,22.8
2017-09-16T13:22:18.323Z,22.6
2017-09-16T13:23:19.952Z,22.5
2017-09-16T13:24:21.585Z,22.4
2017-09-16T13:25:23.210Z,22.1
2017-09-16T13:26:24.843Z,22.0
2017-09-16T13:27:26.470Z,22.1
2017-09-16T13:28:28.098Z,21.8
2017-09-16T13:29:29.723Z,21.8
2017-09-16T13:30:31.352Z,21.8
2017-09-16T13:31:32.978Z,21.7
2017-09-16T13:32:34.608Z,21.5
2017-09-16T13:33:36.236Z,21.3
2017-09-16T13:34:37.865Z,21.4
2017-09-16T13:35:39.493Z,21.4
2017-09-16T13:36:41.119Z,21.4
2017-09-16T13:37:42.753Z,21.3
2017-09-16T13:38:44.380Z,21.2
2017-09-16T13:39:46.009Z,21.3
2017-09-16T13:40:47.640Z,21.2
2017-09-16T13:41:49.266Z,21.2
2017-09-16T13:42:50.893Z,21.1
2017-09-16T13:43:52.520Z,21.2
2017-09-16T13:44:54.146Z,21.3
2017-09-16T13:45:55.775Z,21.3
2017-09-16T13:46:57.401Z,21.1
2017-09-16T13:47:59.029Z,20.9
2017-09-16T13:49:00.661Z,20.9
2017-09-16T13:50:02.286Z,20.9
2017-09-16T13:51:03.911Z,20.5
2017-09-16T13:52:05.541Z,20.5